createdAt,value
2022-08-17T00:00:27.000Z,80.46
2022-08-17T00:20:51.000Z,79.09
2022-08-17T00:20:51.000Z,79.49
2022-08-17T00:21:51.000Z,78.99
2022-08-17T00:22:51.000Z,79.29
2022-08-17T00:23:51.000Z,79.49
2022-08-17T00:24:51.000Z,79.60
2022-08-17T00:25:51.000Z,79.53
2022-08-17T00:26:51.000Z,79.33
2022-08-17T00:27:51.000Z,79.23
2022-08-17T00:28:51.000Z,79.19
2022-08-17T00:29:50.000Z,79.13
2022-08-17T00:30:50.000Z,79.33
2022-08-17T00:31:50.000Z,79.33
2022-08-17T00:32:50.000Z,79.03
2022-08-17T00:33:50.000Z,78.83
2022-08-17T00:34:50.000Z,78.93
2022-08-17T00:35:50.000Z,79.13
2022-08-17T00:36:50.000Z,79.43
2022-08-17T00:37:50.000Z,79.63
2022-08-17T00:38:50.000Z,79.83
2022-08-17T00:39:50.000Z,79.83
2022-08-17T00:40:50.000Z,79.93
2022-08-17T00:41:50.000Z,80.04
2022-08-17T00:42:50.000Z,80.54
2022-08-17T00:43:50.000Z,81.74
2022-08-17T00:44:50.000Z,82.75
2022-08-17T00:45:50.000Z,83.04
2022-08-17T00:46:50.000Z,82.84
2022-08-17T00:47:50.000Z,82.98
2022-08-17T00:48:50.000Z,82.95
2022-08-17T00:49:50.000Z,83.18
2022-08-17T00:50:50.000Z,83.15
2022-08-17T00:51:50.000Z,83.59
2022-08-17T00:52:50.000Z,83.79
2022-08-17T00:53:50.000Z,82.89
2022-08-17T01:07:42.000Z,83.18
2022-08-17T01:07:42.000Z,83.29
2022-08-17T01:08:42.000Z,83.18
2022-08-17T01:09:42.000Z,82.98
2022-08-17T01:10:42.000Z,83.09
2022-08-17T01:11:42.000Z,83.23
2022-08-17T01:12:42.000Z,83.18
2022-08-17T01:13:42.000Z,82.92
2022-08-17T01:14:42.000Z,82.68
2022-08-17T01:15:42.000Z,82.82
2022-08-17T01:16:42.000Z,82.72
2022-08-17T01:17:42.000Z,82.62
2022-08-17T01:18:42.000Z,82.32
2022-08-17T01:19:42.000Z,82.02
2022-08-17T01:20:41.000Z,81.92
2022-08-17T01:21:41.000Z,81.92
2022-08-17T01:22:41.000Z,81.92
2022-08-17T01:23:41.000Z,82.02
2022-08-17T01:24:41.000Z,82.12
2022-08-17T01:25:41.000Z,82.12
2022-08-17T01:26:41.000Z,82.12
2022-08-17T01:27:41.000Z,82.22
2022-08-17T01:28:41.000Z,82.22
2022-08-17T01:29:41.000Z,82.22
2022-08-17T01:30:41.000Z,82.22
2022-08-17T01:31:41.000Z,82.22
2022-08-17T01:32:41.000Z,82.42
2022-08-17T01:33:41.000Z,82.52
2022-08-17T01:34:41.000Z,82.52
2022-08-17T01:35:41.000Z,82.32
2022-08-17T01:36:41.000Z,82.32
2022-08-17T01:37:41.000Z,82.12
2022-08-17T01:38:41.000Z,82.12
2022-08-17T01:39:41.000Z,82.16
2022-08-17T01:40:41.000Z,82.12
2022-08-17T01:41:41.000Z,82.26
2022-08-17T01:42:41.000Z,82.36
2022-08-17T01:43:41.000Z,82.46
2022-08-17T01:44:41.000Z,82.56
2022-08-17T01:45:41.000Z,82.66
2022-08-17T01:46:41.000Z,82.66
2022-08-17T01:47:41.000Z,82.86
2022-08-17T01:48:41.000Z,83.17
2022-08-17T01:49:41.000Z,83.37
2022-08-17T01:50:41.000Z,83.47
2022-08-17T01:51:41.000Z,83.67
2022-08-17T01:52:41.000Z,83.67
2022-08-17T01:53:41.000Z,83.87
2022-08-17T01:54:41.000Z,83.76
2022-08-17T01:55:41.000Z,83.87
2022-08-17T01:56:41.000Z,84.17
2022-08-17T01:57:41.000Z,84.47
2022-08-17T01:58:41.000Z,84.71
2022-08-17T01:59:41.000Z,84.91
2022-08-17T02:00:41.000Z,85.11
2022-08-17T02:01:41.000Z,85.82
2022-08-17T02:02:41.000Z,85.46
2022-08-17T02:03:41.000Z,85.46
2022-08-17T02:04:41.000Z,85.96
2022-08-17T02:05:41.000Z,85.96
2022-08-17T02:06:41.000Z,85.76
2022-08-17T02:07:41.000Z,85.86
2022-08-17T02:08:41.000Z,85.96
2022-08-17T02:09:41.000Z,85.96
2022-08-17T02:10:41.000Z,86.06
2022-08-17T02:11:41.000Z,86.10
2022-08-17T02:12:41.000Z,86.00
2022-08-17T02:13:41.000Z,86.41
2022-08-17T02:14:41.000Z,86.51
2022-08-17T02:15:41.000Z,86.71
2022-08-17T02:16:41.000Z,86.81
2022-08-17T02:17:41.000Z,86.71
2022-08-17T02:18:41.000Z,86.71
2022-08-17T02:19:41.000Z,86.71
2022-08-17T02:20:41.000Z,86.81
2022-08-17T02:21:41.000Z,86.91
2022-08-17T02:22:41.000Z,86.91
2022-08-17T02:23:41.000Z,87.11
2022-08-17T02:24:41.000Z,87.21
2022-08-17T02:25:41.000Z,87.31
2022-08-17T02:26:41.000Z,87.21
2022-08-17T02:27:41.000Z,87.15
2022-08-17T02:28:41.000Z,87.11
2022-08-17T02:29:41.000Z,87.76
2022-08-17T02:30:41.000Z,87.71
2022-08-17T02:31:41.000Z,87.96
2022-08-17T02:32:41.000Z,87.55
2022-08-17T02:33:41.000Z,87.55
2022-08-17T02:34:41.000Z,87.45
2022-08-17T02:35:41.000Z,87.35
2022-08-17T02:36:41.000Z,87.25
2022-08-17T02:37:41.000Z,87.05
2022-08-17T02:38:41.000Z,87.25
2022-08-17T02:39:41.000Z,87.15
2022-08-17T02:40:41.000Z,87.15
2022-08-17T02:41:41.000Z,87.05
2022-08-17T02:42:41.000Z,86.65
2022-08-17T02:43:41.000Z,86.55
2022-08-17T02:44:41.000Z,86.35
2022-08-17T02:45:41.000Z,86.35
2022-08-17T02:46:41.000Z,86.35
2022-08-17T02:47:41.000Z,85.88
2022-08-17T02:48:41.000Z,86.08
2022-08-17T02:49:41.000Z,86.18
2022-08-17T02:50:41.000Z,85.88
2022-08-17T03:07:50.000Z,85.84
2022-08-17T03:07:50.000Z,85.84
2022-08-17T03:08:50.000Z,85.94
2022-08-17T03:09:50.000Z,86.35
2022-08-17T03:10:50.000Z,86.44
2022-08-17T03:13:06.000Z,86.55
2022-08-17T03:13:06.000Z,86.44
2022-08-17T03:14:06.000Z,86.44
2022-08-17T03:15:06.000Z,86.35
2022-08-17T03:16:06.000Z,86.35
2022-08-17T03:17:06.000Z,86.38
2022-08-17T03:18:06.000Z,86.35
2022-08-17T03:19:06.000Z,86.35
2022-08-17T03:20:06.000Z,86.49
2022-08-17T03:21:06.000Z,86.29
2022-08-17T03:23:24.000Z,85.68
2022-08-17T03:23:24.000Z,85.68
2022-08-17T03:24:24.000Z,85.78
2022-08-17T03:25:24.000Z,85.98
2022-08-17T03:26:24.000Z,86.29
2022-08-17T03:27:24.000Z,86.38
2022-08-17T03:28:24.000Z,86.49
2022-08-17T03:29:24.000Z,86.49
2022-08-17T03:30:24.000Z,86.49
2022-08-17T03:31:24.000Z,86.38
2022-08-17T03:32:24.000Z,86.38
2022-08-17T03:33:24.000Z,86.49
2022-08-17T03:34:24.000Z,86.29
2022-08-17T03:35:24.000Z,85.88
2022-08-17T03:36:24.000Z,85.78
2022-08-17T03:37:24.000Z,85.68
2022-08-17T03:38:24.000Z,85.68
2022-08-17T03:39:24.000Z,85.78
2022-08-17T03:40:24.000Z,85.78
2022-08-17T03:41:24.000Z,85.78
2022-08-17T03:42:24.000Z,85.68
2022-08-17T03:43:24.000Z,85.58
2022-08-17T03:44:24.000Z,85.58
2022-08-17T03:45:24.000Z,85.58
2022-08-17T03:46:24.000Z,85.88
2022-08-17T04:14:50.000Z,87.09
2022-08-17T04:14:50.000Z,87.19
2022-08-17T04:15:50.000Z,87.29
2022-08-17T04:16:50.000Z,87.29
2022-08-17T04:17:50.000Z,87.29
2022-08-17T05:03:23.000Z,86.41
2022-08-17T05:03:23.000Z,86.51
2022-08-17T05:04:23.000Z,86.81
2022-08-17T05:05:23.000Z,86.91
2022-08-17T05:06:23.000Z,86.91
2022-08-17T05:07:23.000Z,86.91
2022-08-17T05:08:23.000Z,86.71
2022-08-17T05:36:49.000Z,79.99
2022-08-17T05:36:49.000Z,80.40
2022-08-17T05:37:49.000Z,80.86
2022-08-17T05:38:49.000Z,80.26
2022-08-17T05:39:49.000Z,79.62
2022-08-17T05:40:49.000Z,79.42
2022-08-17T05:41:49.000Z,78.58
2022-08-17T05:42:49.000Z,77.48
2022-08-17T05:43:49.000Z,76.37
2022-08-17T05:44:49.000Z,75.43
2022-08-17T05:45:49.000Z,75.43
2022-08-17T05:46:49.000Z,75.63
2022-08-17T05:47:49.000Z,75.40
2022-08-17T05:48:49.000Z,75.20
2022-08-17T05:49:49.000Z,75.60
2022-08-17T05:50:49.000Z,75.56
2022-08-17T05:51:49.000Z,75.37
2022-08-17T05:52:49.000Z,73.66
2022-08-17T05:53:49.000Z,74.46
2022-08-17T05:54:49.000Z,74.16
2022-08-17T05:55:49.000Z,74.37
2022-08-17T05:56:49.000Z,74.46
2022-08-17T05:57:49.000Z,73.96
2022-08-17T05:58:49.000Z,74.26
2022-08-17T05:59:49.000Z,73.86
2022-08-17T06:00:49.000Z,74.60
2022-08-17T06:01:49.000Z,75.20
2022-08-17T06:02:49.000Z,75.10
2022-08-17T06:03:49.000Z,75.80
2022-08-17T06:04:49.000Z,76.90
2022-08-17T06:05:49.000Z,77.47
2022-08-17T06:06:49.000Z,76.67
2022-08-17T06:07:49.000Z,77.56
2022-08-17T06:08:49.000Z,75.56
2022-08-17T06:09:49.000Z,76.26
2022-08-17T06:59:22.000Z,67.00
2022-08-17T06:59:22.000Z,67.20
2022-08-17T07:00:22.000Z,66.91
2022-08-17T07:01:22.000Z,66.80
2022-08-17T07:02:22.000Z,66.71
2022-08-17T07:03:22.000Z,67.10
2022-08-17T07:04:22.000Z,68.00
2022-08-17T07:05:22.000Z,67.20
2022-08-17T07:06:22.000Z,68.00
2022-08-17T07:07:22.000Z,66.87
2022-08-17T07:08:22.000Z,66.87
2022-08-17T07:09:22.000Z,67.97
2022-08-17T07:10:22.000Z,66.27
2022-08-17T07:11:22.000Z,67.17
2022-08-17T07:12:22.000Z,66.05
2022-08-17T07:13:22.000Z,66.44
2022-08-17T07:14:22.000Z,67.14
2022-08-17T07:15:22.000Z,65.25
2022-08-17T07:16:22.000Z,65.61
2022-08-17T07:17:22.000Z,65.81
2022-08-17T07:18:22.000Z,65.78
2022-08-17T07:19:22.000Z,63.96
2022-08-17T07:20:22.000Z,65.82
2022-08-17T07:21:22.000Z,63.73
2022-08-17T07:22:22.000Z,62.41
2022-08-17T07:23:22.000Z,63.70
2022-08-17T07:24:22.000Z,62.18
2022-08-17T07:25:22.000Z,62.88
2022-08-17T07:26:22.000Z,62.38
2022-08-17T07:27:22.000Z,61.16
2022-08-17T07:28:22.000Z,61.36
2022-08-17T07:29:22.000Z,61.33
2022-08-17T07:30:22.000Z,60.83
2022-08-17T07:31:22.000Z,61.60
2022-08-17T07:32:22.000Z,60.02
2022-08-17T07:33:22.000Z,60.19
2022-08-17T07:34:22.000Z,60.08
2022-08-17T07:35:22.000Z,58.40
2022-08-17T07:36:22.000Z,59.06
2022-08-17T07:37:22.000Z,57.39
2022-08-17T07:38:22.000Z,56.17
2022-08-17T07:39:22.000Z,57.16
2022-08-17T07:40:22.000Z,56.76
2022-08-17T07:41:22.000Z,56.54
2022-08-17T07:42:22.000Z,57.23
2022-08-17T07:43:22.000Z,57.20
2022-08-17T07:44:22.000Z,56.12
2022-08-17T07:45:22.000Z,55.40
2022-08-17T07:46:22.000Z,55.99
2022-08-17T07:47:22.000Z,54.48
2022-08-17T07:48:22.000Z,54.09
2022-08-17T07:49:22.000Z,53.96
2022-08-17T07:50:22.000Z,53.15
2022-08-17T07:51:22.000Z,52.85
2022-08-17T07:52:22.000Z,51.35
2022-08-17T07:53:22.000Z,52.21
2022-08-17T07:54:22.000Z,51.62
2022-08-17T07:55:22.000Z,53.00
2022-08-17T07:56:22.000Z,53.96
2022-08-17T07:57:22.000Z,50.71
2022-08-17T07:58:22.000Z,51.76
2022-08-17T07:59:22.000Z,50.88
2022-08-17T08:00:22.000Z,50.78
2022-08-17T08:01:22.000Z,48.89
2022-08-17T08:02:22.000Z,50.37
2022-08-17T08:03:21.000Z,50.85
2022-08-17T08:04:21.000Z,49.55
2022-08-17T08:05:21.000Z,49.65
2022-08-17T08:06:21.000Z,49.46
2022-08-17T08:07:21.000Z,49.33
2022-08-17T08:08:21.000Z,48.55
2022-08-17T08:09:21.000Z,49.01
2022-08-17T08:10:21.000Z,46.56
2022-08-17T08:11:21.000Z,46.83
2022-08-17T08:12:21.000Z,46.93
2022-08-17T08:13:21.000Z,45.85
2022-08-17T08:13:21.000Z,45.85
2022-08-17T08:14:21.000Z,45.65
2022-08-17T08:14:21.000Z,45.65
2022-08-17T08:15:21.000Z,47.00
2022-08-17T08:15:21.000Z,47.00
2022-08-17T08:16:21.000Z,44.94
2022-08-17T08:16:21.000Z,44.94
2022-08-17T08:17:21.000Z,45.43
2022-08-17T08:17:21.000Z,45.43
2022-08-17T08:18:21.000Z,45.34
2022-08-17T08:19:21.000Z,48.08
2022-08-17T08:20:21.000Z,47.30
2022-08-17T08:21:21.000Z,45.51
2022-08-17T08:22:21.000Z,46.30
2022-08-17T08:41:10.000Z,42.29
2022-08-17T08:41:10.000Z,43.37
2022-08-17T08:42:10.000Z,42.76
2022-08-17T08:43:10.000Z,41.68
2022-08-17T09:05:00.000Z,35.88
2022-08-17T09:05:00.000Z,36.27
2022-08-17T09:05:00.000Z,35.88
2022-08-17T09:06:00.000Z,35.57
2022-08-17T09:07:00.000Z,37.04
2022-08-17T09:08:00.000Z,35.46
2022-08-17T09:09:00.000Z,35.55
2022-08-17T09:21:33.000Z,36.22
2022-08-17T09:21:33.000Z,34.74
2022-08-17T09:22:33.000Z,34.27
2022-08-17T09:23:33.000Z,33.39
2022-08-17T09:24:33.000Z,33.69
2022-08-17T09:25:33.000Z,34.47
2022-08-17T09:26:33.000Z,34.64
2022-08-17T09:27:33.000Z,34.06
2022-08-17T09:28:33.000Z,33.86
2022-08-17T09:29:33.000Z,33.18
2022-08-17T09:30:33.000Z,32.40
2022-08-17T09:31:33.000Z,33.20
2022-08-17T09:32:33.000Z,33.29
2022-08-17T09:33:33.000Z,35.73
2022-08-17T09:34:33.000Z,35.34
2022-08-17T09:35:33.000Z,34.08
2022-08-17T09:36:33.000Z,35.25
2022-08-17T09:37:33.000Z,35.05
2022-08-17T09:38:33.000Z,35.33
2022-08-17T09:39:33.000Z,34.63
2022-08-17T09:40:33.000Z,34.92
2022-08-17T09:41:33.000Z,34.63
2022-08-17T09:42:33.000Z,35.68
2022-08-17T09:43:33.000Z,34.03
2022-08-17T09:44:33.000Z,34.79
2022-08-17T09:45:33.000Z,33.33
2022-08-17T09:45:33.000Z,33.33
2022-08-17T09:46:33.000Z,33.41
2022-08-17T09:46:33.000Z,33.41
2022-08-17T09:47:33.000Z,33.99
2022-08-17T09:47:33.000Z,33.99
2022-08-17T09:48:33.000Z,33.69
2022-08-17T09:48:33.000Z,33.69
2022-08-17T09:49:33.000Z,31.57
2022-08-17T09:49:33.000Z,31.57
2022-08-17T09:50:33.000Z,32.05
2022-08-17T09:51:33.000Z,32.55
2022-08-17T09:52:33.000Z,32.28
2022-08-17T09:53:33.000Z,33.15
2022-08-17T09:54:33.000Z,32.18
2022-08-17T09:55:33.000Z,32.28
2022-08-17T09:56:33.000Z,32.37
2022-08-17T09:57:33.000Z,31.68
2022-08-17T09:58:33.000Z,31.87
2022-08-17T09:59:33.000Z,33.12
2022-08-17T10:00:33.000Z,31.27
2022-08-17T10:01:33.000Z,31.07
2022-08-17T10:02:33.000Z,30.87
2022-08-17T10:03:33.000Z,30.66
2022-08-17T10:04:33.000Z,31.91
2022-08-17T10:05:33.000Z,31.13
2022-08-17T10:05:33.000Z,31.13
2022-08-17T10:06:33.000Z,33.83
2022-08-17T10:06:33.000Z,33.83
2022-08-17T10:07:33.000Z,30.82
2022-08-17T10:07:33.000Z,30.82
2022-08-17T10:08:33.000Z,30.73
2022-08-17T10:08:33.000Z,30.73
2022-08-17T10:09:33.000Z,31.81
2022-08-17T10:09:33.000Z,31.81
2022-08-17T10:10:33.000Z,30.63
2022-08-17T10:11:33.000Z,30.92
2022-08-17T10:12:33.000Z,29.85
2022-08-17T10:13:33.000Z,29.47
2022-08-17T10:14:33.000Z,29.48
2022-08-17T10:15:33.000Z,29.77
2022-08-17T10:16:33.000Z,29.95
2022-08-17T10:17:33.000Z,30.05
2022-08-17T10:18:33.000Z,30.74
2022-08-17T10:19:33.000Z,31.52
2022-08-17T10:20:33.000Z,30.34
2022-08-17T10:21:33.000Z,30.82
2022-08-17T10:22:33.000Z,30.42
2022-08-17T10:23:33.000Z,29.19
2022-08-17T10:24:33.000Z,30.18
2022-08-17T10:32:49.000Z,31.82
2022-08-17T10:32:49.000Z,30.65
2022-08-17T10:33:49.000Z,31.74
2022-08-17T10:34:49.000Z,32.03
2022-08-17T10:38:06.000Z,32.00
2022-08-17T10:38:06.000Z,32.29
2022-08-17T10:39:06.000Z,33.25
2022-08-17T10:40:06.000Z,31.29
2022-08-17T10:41:06.000Z,31.88
2022-08-17T10:42:06.000Z,31.21
2022-08-17T10:43:06.000Z,31.11
2022-08-17T10:44:06.000Z,31.88
2022-08-17T10:45:06.000Z,31.41
2022-08-17T11:09:28.000Z,29.27
2022-08-17T11:09:28.000Z,30.82
2022-08-17T11:10:28.000Z,29.74
2022-08-17T11:11:28.000Z,31.10
2022-08-17T11:12:28.000Z,30.11
2022-08-17T11:13:28.000Z,30.21
2022-08-17T11:14:28.000Z,28.86
2022-08-17T11:15:28.000Z,28.18
2022-08-17T11:16:28.000Z,29.63
2022-08-17T11:17:28.000Z,28.68
2022-08-17T11:18:28.000Z,28.86
2022-08-17T11:19:28.000Z,29.83
2022-08-17T11:20:28.000Z,27.91
2022-08-17T11:21:28.000Z,27.91
2022-08-17T11:22:28.000Z,28.49
2022-08-17T11:23:28.000Z,29.53
2022-08-17T11:24:28.000Z,28.66
2022-08-17T11:25:28.000Z,29.63
2022-08-17T11:26:28.000Z,29.15
2022-08-17T11:27:28.000Z,28.66
2022-08-17T11:27:28.000Z,28.66
2022-08-17T11:28:28.000Z,29.53
2022-08-17T11:28:28.000Z,29.53
2022-08-17T11:29:28.000Z,28.28
2022-08-17T11:29:28.000Z,28.28
2022-08-17T11:30:28.000Z,28.86
2022-08-17T11:30:28.000Z,28.86
2022-08-17T11:31:28.000Z,30.99
2022-08-17T11:31:28.000Z,30.99
2022-08-17T11:32:28.000Z,29.94
2022-08-17T11:33:28.000Z,28.29
2022-08-17T11:34:28.000Z,29.64
2022-08-17T11:35:28.000Z,28.59
2022-08-17T11:36:28.000Z,29.37
2022-08-17T11:37:28.000Z,28.11
2022-08-17T11:38:28.000Z,27.92
2022-08-17T11:39:28.000Z,28.98
2022-08-17T11:40:28.000Z,28.89
2022-08-17T11:41:28.000Z,29.37
2022-08-17T11:42:28.000Z,28.20
2022-08-17T11:43:28.000Z,29.08
2022-08-17T11:44:28.000Z,27.64
2022-08-17T11:45:28.000Z,28.12
2022-08-17T11:46:28.000Z,27.43
2022-08-17T11:47:35.000Z,29.47
2022-08-17T11:48:28.000Z,26.84
2022-08-17T11:49:28.000Z,28.29
2022-08-17T11:50:28.000Z,28.47
2022-08-17T11:51:28.000Z,27.58
2022-08-17T11:52:28.000Z,27.49
2022-08-17T11:53:28.000Z,28.05
2022-08-17T11:54:28.000Z,28.94
2022-08-17T11:55:28.000Z,28.94
2022-08-17T11:56:28.000Z,29.12
2022-08-17T11:57:28.000Z,27.47
2022-08-17T11:58:28.000Z,28.25
2022-08-17T11:59:28.000Z,25.72
2022-08-17T12:00:28.000Z,27.36
2022-08-17T12:01:28.000Z,28.04
2022-08-17T12:02:28.000Z,26.97
2022-08-17T12:03:28.000Z,28.70
2022-08-17T12:04:28.000Z,26.67
2022-08-17T12:05:28.000Z,28.12
2022-08-17T12:06:28.000Z,26.78
2022-08-17T12:07:28.000Z,27.36
2022-08-17T12:08:28.000Z,26.30
2022-08-17T12:09:28.000Z,26.98
2022-08-17T12:10:27.000Z,26.40
2022-08-17T12:11:27.000Z,26.50
2022-08-17T12:12:27.000Z,26.30
2022-08-17T12:12:27.000Z,26.30
2022-08-17T12:13:27.000Z,26.40
2022-08-17T12:13:27.000Z,26.40
2022-08-17T12:14:27.000Z,25.83
2022-08-17T12:14:27.000Z,25.83
2022-08-17T12:15:27.000Z,26.81
2022-08-17T12:15:27.000Z,26.81
2022-08-17T12:16:27.000Z,26.72
2022-08-17T12:16:27.000Z,26.72
2022-08-17T12:17:27.000Z,25.84
2022-08-17T12:18:27.000Z,27.28
2022-08-17T12:19:27.000Z,26.04
2022-08-17T12:20:27.000Z,26.14
2022-08-17T12:21:27.000Z,27.11
2022-08-17T12:22:27.000Z,28.08
2022-08-17T12:22:27.000Z,28.08
2022-08-17T12:23:27.000Z,27.40
2022-08-17T12:23:27.000Z,27.40
2022-08-17T12:24:27.000Z,27.98
2022-08-17T12:24:27.000Z,27.98
2022-08-17T12:25:27.000Z,28.76
2022-08-17T12:25:27.000Z,28.76
2022-08-17T12:26:27.000Z,29.46
2022-08-17T12:26:27.000Z,29.46
2022-08-17T12:27:27.000Z,29.63
2022-08-17T12:28:27.000Z,29.15
2022-08-17T12:29:27.000Z,28.66
2022-08-17T12:30:27.000Z,29.05
2022-08-17T12:31:27.000Z,27.60
2022-08-17T12:33:44.000Z,29.23
2022-08-17T12:33:44.000Z,27.78
2022-08-17T12:34:44.000Z,26.99
2022-08-17T12:35:44.000Z,27.86
2022-08-17T12:36:44.000Z,27.36
2022-08-17T12:37:44.000Z,26.57
2022-08-17T12:38:44.000Z,26.86
2022-08-17T12:39:44.000Z,27.44
2022-08-17T12:40:44.000Z,25.68
2022-08-17T12:41:44.000Z,27.51
2022-08-17T12:42:44.000Z,26.84
2022-08-17T12:43:44.000Z,25.97
2022-08-17T12:44:44.000Z,28.95
2022-08-17T12:45:44.000Z,26.44
2022-08-17T12:46:44.000Z,26.44
2022-08-17T12:47:44.000Z,25.95
2022-08-17T12:47:44.000Z,25.95
2022-08-17T12:48:44.000Z,26.82
2022-08-17T12:48:44.000Z,26.82
2022-08-17T12:49:44.000Z,27.78
2022-08-17T12:49:44.000Z,27.78
2022-08-17T12:50:44.000Z,27.29
2022-08-17T12:50:44.000Z,27.29
2022-08-17T12:51:44.000Z,26.15
2022-08-17T12:51:44.000Z,26.15
2022-08-17T12:52:44.000Z,25.68
2022-08-17T12:53:44.000Z,25.79
2022-08-17T12:54:44.000Z,26.29
2022-08-17T12:55:44.000Z,26.67
2022-08-17T12:56:44.000Z,28.03
2022-08-17T12:57:44.000Z,26.37
2022-08-17T12:58:44.000Z,27.34
2022-08-17T12:59:44.000Z,27.44
2022-08-17T13:00:44.000Z,28.39
2022-08-17T13:01:44.000Z,26.65
2022-08-17T13:02:44.000Z,26.75
2022-08-17T13:03:44.000Z,26.28
2022-08-17T13:04:43.000Z,26.77
2022-08-17T13:05:43.000Z,26.77
2022-08-17T13:06:43.000Z,26.20
2022-08-17T13:07:43.000Z,28.72
2022-08-17T13:08:43.000Z,28.64
2022-08-17T13:09:43.000Z,28.54
2022-08-17T13:10:43.000Z,27.94
2022-08-17T13:11:43.000Z,26.41
2022-08-17T13:12:43.000Z,26.21
2022-08-17T13:13:43.000Z,28.73
2022-08-17T13:14:43.000Z,27.96
2022-08-17T13:15:43.000Z,26.12
2022-08-17T13:16:43.000Z,27.76
2022-08-17T13:17:43.000Z,27.37
2022-08-17T13:18:43.000Z,26.30
2022-08-17T13:19:43.000Z,27.56
2022-08-17T13:20:43.000Z,27.35
2022-08-17T13:21:43.000Z,25.61
2022-08-17T13:22:43.000Z,26.09
2022-08-17T13:23:43.000Z,26.09
2022-08-17T13:24:43.000Z,27.55
2022-08-17T13:25:43.000Z,25.89
2022-08-17T13:26:43.000Z,25.50
2022-08-17T13:27:43.000Z,26.65
2022-08-17T13:28:43.000Z,25.29
2022-08-17T13:29:43.000Z,25.59
2022-08-17T13:30:43.000Z,25.97
2022-08-17T13:31:43.000Z,25.87
2022-08-17T13:32:43.000Z,25.78
2022-08-17T13:33:43.000Z,25.97
2022-08-17T13:34:43.000Z,25.40
2022-08-17T13:35:43.000Z,25.32
2022-08-17T13:36:43.000Z,24.93
2022-08-17T13:37:43.000Z,25.54
2022-08-17T13:38:43.000Z,25.73
2022-08-17T13:39:43.000Z,25.84
2022-08-17T13:40:43.000Z,26.43
2022-08-17T13:41:43.000Z,24.99
2022-08-17T13:42:43.000Z,25.78
2022-08-17T13:43:43.000Z,27.06
2022-08-17T13:44:43.000Z,28.12
2022-08-17T13:45:43.000Z,27.84
2022-08-17T13:46:43.000Z,27.94
2022-08-17T13:47:43.000Z,27.66
2022-08-17T13:48:43.000Z,27.07
2022-08-17T13:49:43.000Z,27.73
2022-08-17T13:50:43.000Z,28.02
2022-08-17T13:51:43.000Z,28.39
2022-08-17T13:52:43.000Z,27.78
2022-08-17T13:52:43.000Z,27.78
2022-08-17T13:53:43.000Z,27.09
2022-08-17T13:53:43.000Z,27.09
2022-08-17T13:54:43.000Z,26.88
2022-08-17T13:54:43.000Z,26.88
2022-08-17T13:55:43.000Z,26.30
2022-08-17T13:55:43.000Z,26.30
2022-08-17T13:56:43.000Z,25.52
2022-08-17T13:56:43.000Z,25.52
2022-08-17T13:57:43.000Z,26.20
2022-08-17T13:58:43.000Z,25.71
2022-08-17T13:59:43.000Z,25.01
2022-08-17T14:00:43.000Z,25.09
2022-08-17T14:01:43.000Z,25.66
2022-08-17T14:02:43.000Z,25.24
2022-08-17T14:03:43.000Z,23.80
2022-08-17T14:04:43.000Z,23.88
2022-08-17T14:05:43.000Z,24.05
2022-08-17T14:06:43.000Z,23.27
2022-08-17T14:07:43.000Z,23.08
2022-08-17T14:08:43.000Z,22.99
2022-08-17T14:09:43.000Z,23.65
2022-08-17T14:10:43.000Z,24.11
2022-08-17T14:11:43.000Z,23.92
2022-08-17T14:12:43.000Z,23.27
2022-08-17T14:13:43.000Z,23.08
2022-08-17T14:14:43.000Z,22.52
2022-08-17T14:15:43.000Z,23.87
2022-08-17T14:16:43.000Z,24.55
2022-08-17T14:17:43.000Z,23.68
2022-08-17T14:18:43.000Z,24.09
2022-08-17T14:19:43.000Z,23.05
2022-08-17T14:20:43.000Z,23.74
2022-08-17T14:21:43.000Z,25.10
2022-08-17T14:22:43.000Z,24.90
2022-08-17T14:23:43.000Z,25.10
2022-08-17T14:24:43.000Z,24.62
2022-08-17T14:25:43.000Z,25.28
2022-08-17T14:26:43.000Z,25.38
2022-08-17T14:27:43.000Z,25.28
2022-08-17T14:28:43.000Z,24.13
2022-08-17T14:29:43.000Z,24.02
2022-08-17T14:30:43.000Z,23.33
2022-08-17T14:31:43.000Z,22.84
2022-08-17T14:32:43.000Z,24.29
2022-08-17T14:33:43.000Z,23.90
2022-08-17T14:34:43.000Z,24.27
2022-08-17T14:35:43.000Z,23.39
2022-08-17T14:36:43.000Z,22.05
2022-08-17T14:37:43.000Z,23.28
2022-08-17T14:38:43.000Z,22.52
2022-08-17T14:39:43.000Z,22.59
2022-08-17T14:40:43.000Z,23.16
2022-08-17T14:41:43.000Z,21.14
2022-08-17T14:42:43.000Z,20.94
2022-08-17T14:43:43.000Z,20.84
2022-08-17T14:44:43.000Z,21.12
2022-08-17T14:45:43.000Z,21.12
2022-08-17T14:46:43.000Z,21.59
2022-08-17T14:47:43.000Z,21.97
2022-08-17T14:48:43.000Z,21.30
2022-08-17T14:49:43.000Z,21.11
2022-08-17T14:50:42.000Z,21.88
2022-08-17T14:51:42.000Z,22.74
2022-08-17T14:52:42.000Z,21.28
2022-08-17T14:53:42.000Z,22.34
2022-08-17T14:54:42.000Z,21.37
2022-08-17T14:55:42.000Z,20.92
2022-08-17T14:56:42.000Z,22.01
2022-08-17T14:57:42.000Z,21.62
2022-08-17T14:58:42.000Z,21.62
2022-08-17T14:59:42.000Z,22.22
2022-08-17T15:00:42.000Z,23.08
2022-08-17T15:01:42.000Z,21.92
2022-08-17T15:02:42.000Z,22.90
2022-08-17T15:03:42.000Z,23.52
2022-08-17T15:04:42.000Z,23.16
2022-08-17T15:05:42.000Z,24.05
2022-08-17T15:06:42.000Z,24.16
2022-08-17T15:07:42.000Z,25.35
2022-08-17T15:08:42.000Z,25.65
2022-08-17T15:09:42.000Z,25.85
2022-08-17T15:10:42.000Z,25.98
2022-08-17T15:11:42.000Z,25.81
2022-08-17T15:12:42.000Z,27.00
2022-08-17T15:13:42.000Z,27.59
2022-08-17T15:14:42.000Z,28.49
2022-08-17T15:15:42.000Z,28.49
2022-08-17T15:16:42.000Z,28.30
2022-08-17T15:17:42.000Z,29.28
2022-08-17T15:18:42.000Z,28.72
2022-08-17T15:19:42.000Z,29.50
2022-08-17T15:20:42.000Z,29.03
2022-08-17T15:21:42.000Z,29.72
2022-08-17T15:22:42.000Z,31.19
2022-08-17T15:23:42.000Z,30.51
2022-08-17T15:24:42.000Z,32.26
2022-08-17T15:25:42.000Z,34.71
2022-08-17T15:26:42.000Z,34.71
2022-08-17T15:27:42.000Z,31.51
2022-08-17T15:28:42.000Z,30.63
2022-08-17T15:29:42.000Z,31.52
2022-08-17T15:30:42.000Z,33.09
2022-08-17T15:31:42.000Z,32.89
2022-08-17T15:32:42.000Z,33.18
2022-08-17T15:33:42.000Z,33.18
2022-08-17T15:34:42.000Z,31.43
2022-08-17T15:35:42.000Z,31.62
2022-08-17T15:36:42.000Z,31.82
2022-08-17T15:37:42.000Z,30.65
2022-08-17T15:38:42.000Z,29.18
2022-08-17T15:39:42.000Z,30.74
2022-08-17T15:40:42.000Z,31.92
2022-08-17T15:41:42.000Z,32.60
2022-08-17T15:42:42.000Z,31.92
2022-08-17T15:43:42.000Z,32.70
2022-08-17T15:44:42.000Z,32.99
2022-08-17T15:45:42.000Z,33.18
2022-08-17T15:46:42.000Z,32.70
2022-08-17T15:47:42.000Z,33.18
2022-08-17T15:48:42.000Z,30.55
2022-08-17T15:49:42.000Z,31.52
2022-08-17T15:50:42.000Z,31.62
2022-08-17T15:51:42.000Z,32.21
2022-08-17T15:52:42.000Z,31.82
2022-08-17T15:53:42.000Z,32.50
2022-08-17T15:54:42.000Z,31.62
2022-08-17T15:55:42.000Z,31.43
2022-08-17T15:56:42.000Z,32.60
2022-08-17T15:57:42.000Z,32.29
2022-08-17T15:57:42.000Z,32.29
2022-08-17T15:58:42.000Z,30.34
2022-08-17T15:58:42.000Z,30.34
2022-08-17T15:59:42.000Z,31.31
2022-08-17T15:59:42.000Z,31.31
2022-08-17T16:00:42.000Z,30.73
2022-08-17T16:00:42.000Z,30.73
2022-08-17T16:01:42.000Z,32.19
2022-08-17T16:01:42.000Z,32.19
2022-08-17T16:02:42.000Z,31.41
2022-08-17T16:03:42.000Z,31.99
2022-08-17T16:04:42.000Z,31.41
2022-08-17T16:05:42.000Z,32.01
2022-08-17T16:06:42.000Z,32.40
2022-08-17T16:07:42.000Z,32.31
2022-08-17T16:08:42.000Z,32.52
2022-08-17T16:09:42.000Z,33.20
2022-08-17T16:10:42.000Z,32.62
2022-08-17T16:11:42.000Z,32.43
2022-08-17T16:12:42.000Z,31.95
2022-08-17T16:13:42.000Z,32.53
2022-08-17T16:14:42.000Z,32.04
2022-08-17T16:15:42.000Z,32.73
2022-08-17T16:16:42.000Z,32.75
2022-08-17T16:17:42.000Z,33.53
2022-08-17T16:18:42.000Z,32.07
2022-08-17T16:19:42.000Z,32.17
2022-08-17T16:20:42.000Z,32.86
2022-08-17T16:21:42.000Z,33.17
2022-08-17T16:22:42.000Z,33.85
2022-08-17T16:23:42.000Z,32.70
2022-08-17T16:24:42.000Z,32.89
2022-08-17T16:25:42.000Z,34.16
2022-08-17T16:26:42.000Z,34.26
2022-08-17T16:27:42.000Z,34.28
2022-08-17T16:28:42.000Z,33.69
2022-08-17T16:29:42.000Z,33.69
2022-08-17T16:30:42.000Z,34.08
2022-08-17T16:31:41.000Z,34.20
2022-08-17T16:32:41.000Z,34.10
2022-08-17T16:33:41.000Z,33.12